createdAt,value
2018-10-05T00:00:38.157Z,12.70
2018-10-05T00:03:06.466Z,12.80
2018-10-05T00:05:34.537Z,12.80
2018-10-05T00:08:02.556Z,12.80
2018-10-05T00:10:30.555Z,12.90
2018-10-05T00:12:58.698Z,12.90
2018-10-05T00:15:26.775Z,13.00
2018-10-05T00:17:55.170Z,13.00
2018-10-05T00:20:23.202Z,13.00
2018-10-05T00:22:51.425Z,12.90
2018-10-05T00:25:19.522Z,12.80
2018-10-05T00:27:47.615Z,12.80
2018-10-05T00:30:15.689Z,12.70
2018-10-05T00:32:43.872Z,12.60
2018-10-05T00:35:11.874Z,12.50
2018-10-05T00:37:39.946Z,12.50
2018-10-05T00:40:07.946Z,12.40
2018-10-05T00:42:36.005Z,12.30
2018-10-05T00:45:04.093Z,12.20
2018-10-05T00:47:32.130Z,12.10
2018-10-05T00:50:00.265Z,12.00
2018-10-05T00:52:28.650Z,11.90
2018-10-05T00:54:56.697Z,11.80
2018-10-05T00:57:24.826Z,11.70
2018-10-05T00:59:53.006Z,11.70
2018-10-05T01:02:21.053Z,11.60
2018-10-05T01:04:49.071Z,11.50
2018-10-05T01:07:17.461Z,11.40
2018-10-05T01:09:45.549Z,11.30
2018-10-05T01:12:13.555Z,11.20
2018-10-05T01:14:41.594Z,11.10
2018-10-05T01:17:09.698Z,11.10
2018-10-05T01:19:37.738Z,11.00
2018-10-05T01:22:05.978Z,10.90
2018-10-05T01:24:34.195Z,10.90
2018-10-05T01:27:02.226Z,11.00
2018-10-05T01:29:30.245Z,11.00
2018-10-05T01:31:58.406Z,10.80
2018-10-05T01:34:26.707Z,10.70
2018-10-05T01:36:54.710Z,10.50
2018-10-05T01:39:22.767Z,10.70
2018-10-05T01:41:50.782Z,10.70
2018-10-05T01:44:18.818Z,10.60
2018-10-05T01:46:47.223Z,10.60
2018-10-05T01:49:15.239Z,10.50
2018-10-05T01:51:43.289Z,10.40
2018-10-05T01:54:11.331Z,10.40
2018-10-05T01:56:39.365Z,10.50
2018-10-05T01:59:07.526Z,10.50
2018-10-05T02:01:35.835Z,10.60
2018-10-05T02:04:03.886Z,10.70
2018-10-05T02:06:31.895Z,10.70
2018-10-05T02:08:59.945Z,10.70
2018-10-05T02:11:27.966Z,10.80
2018-10-05T02:13:56.041Z,10.90
2018-10-05T02:16:24.077Z,11.00
2018-10-05T02:18:52.318Z,11.00
2018-10-05T02:21:20.365Z,11.00
2018-10-05T02:23:48.594Z,11.20
2018-10-05T02:26:16.633Z,11.20
2018-10-05T02:28:44.669Z,11.30
2018-10-05T02:31:12.742Z,11.30
2018-10-05T02:33:40.822Z,11.30
2018-10-05T02:36:09.202Z,11.40
2018-10-05T02:38:37.290Z,11.40
2018-10-05T02:41:05.594Z,11.40
2018-10-05T02:43:34.110Z,11.50
2018-10-05T02:46:02.365Z,11.50
2018-10-05T02:48:30.449Z,11.50
2018-10-05T02:50:58.473Z,11.50
2018-10-05T02:53:26.522Z,11.50
2018-10-05T02:55:54.524Z,11.60
2018-10-05T02:58:22.558Z,11.60
2018-10-05T03:01:02.009Z,11.60
2018-10-05T03:03:30.018Z,11.60
2018-10-05T03:05:58.419Z,11.70
2018-10-05T03:08:26.431Z,11.70
2018-10-05T03:10:54.553Z,11.70
2018-10-05T03:13:22.867Z,11.70
2018-10-05T03:15:50.956Z,11.70
2018-10-05T03:18:19.038Z,11.80
2018-10-05T03:20:47.126Z,11.70
2018-10-05T03:23:15.212Z,11.70
2018-10-05T03:25:43.343Z,11.70
2018-10-05T03:28:11.439Z,11.70
2018-10-05T03:30:39.558Z,11.80
2018-10-05T03:33:07.638Z,11.80
2018-10-05T03:35:35.694Z,11.80
2018-10-05T03:38:03.838Z,11.80
2018-10-05T03:40:32.011Z,11.80
2018-10-05T03:43:00.082Z,11.80
2018-10-05T03:45:28.102Z,12.00
2018-10-05T03:47:56.146Z,12.10
2018-10-05T03:50:24.326Z,12.00
2018-10-05T03:52:52.397Z,12.00
2018-10-05T03:55:20.509Z,11.90
2018-10-05T03:57:49.058Z,11.90
2018-10-05T04:00:17.087Z,12.00
2018-10-05T04:02:45.162Z,12.10
2018-10-05T04:05:13.559Z,12.10
2018-10-05T04:07:41.578Z,12.10
2018-10-05T04:10:09.623Z,12.10
2018-10-05T04:12:37.659Z,12.10
2018-10-05T04:15:05.809Z,12.10
2018-10-05T04:17:33.882Z,12.20
2018-10-05T04:20:01.884Z,12.20
2018-10-05T04:22:30.865Z,12.20
2018-10-05T04:24:59.045Z,12.20
2018-10-05T04:27:27.140Z,12.20
2018-10-05T04:29:55.938Z,12.30
2018-10-05T04:32:24.126Z,12.30
2018-10-05T04:34:52.204Z,12.30
2018-10-05T04:37:20.240Z,12.40
2018-10-05T04:39:48.238Z,12.30
2018-10-05T04:42:16.566Z,12.40
2018-10-05T04:44:44.595Z,12.30
2018-10-05T04:47:13.142Z,12.20
2018-10-05T04:49:41.251Z,12.20
2018-10-05T04:52:09.201Z,12.20
2018-10-05T04:54:37.249Z,12.30
2018-10-05T04:57:05.378Z,12.30
2018-10-05T04:59:33.462Z,12.30
2018-10-05T05:02:01.950Z,12.40
2018-10-05T05:04:29.998Z,12.30
2018-10-05T05:06:58.218Z,12.20
2018-10-05T05:09:26.221Z,12.20
2018-10-05T05:11:54.221Z,12.20
2018-10-05T05:14:22.371Z,12.20
2018-10-05T05:16:50.464Z,12.20
2018-10-05T05:19:18.502Z,12.20
2018-10-05T05:21:46.834Z,12.20
2018-10-05T05:24:14.894Z,12.20
2018-10-05T05:26:42.998Z,12.20
2018-10-05T05:29:11.025Z,12.20
2018-10-05T05:31:39.050Z,12.30
2018-10-05T05:34:07.296Z,12.30
2018-10-05T05:36:35.283Z,12.30
2018-10-05T05:39:04.581Z,12.30
2018-10-05T05:41:32.629Z,12.20
2018-10-05T05:44:00.715Z,12.20
2018-10-05T05:46:28.713Z,12.30
2018-10-05T05:48:56.750Z,12.30
2018-10-05T05:51:24.745Z,12.30
2018-10-05T05:53:52.835Z,12.40
2018-10-05T05:56:20.831Z,12.50
2018-10-05T05:58:49.113Z,12.50
2018-10-05T06:01:17.219Z,12.60
2018-10-05T06:03:45.159Z,12.60
2018-10-05T06:06:13.164Z,12.60
2018-10-05T06:08:41.242Z,12.60
2018-10-05T06:11:09.333Z,12.60
2018-10-05T06:13:37.352Z,12.70
2018-10-05T06:16:05.500Z,12.80
2018-10-05T06:18:33.446Z,12.90
2018-10-05T06:21:01.464Z,13.00
2018-10-05T06:23:29.505Z,12.90
2018-10-05T06:25:57.507Z,13.00
2018-10-05T06:28:25.514Z,13.10
2018-10-05T06:30:53.804Z,13.20
2018-10-05T06:33:21.876Z,13.20
2018-10-05T06:35:49.873Z,13.30
2018-10-05T06:38:17.931Z,13.40
2018-10-05T06:40:46.018Z,13.40
2018-10-05T06:43:14.119Z,13.50
2018-10-05T06:45:42.214Z,13.50
2018-10-05T06:48:10.258Z,13.70
2018-10-05T06:50:38.297Z,13.70
2018-10-05T06:53:06.365Z,13.80
2018-10-05T06:55:34.706Z,13.90
2018-10-05T06:58:02.889Z,14.00
2018-10-05T07:00:30.889Z,14.20
2018-10-05T07:02:58.927Z,14.30
2018-10-05T07:05:27.034Z,14.30
2018-10-05T07:07:55.144Z,14.40
2018-10-05T07:10:23.073Z,14.40
2018-10-05T07:12:51.115Z,14.40
2018-10-05T07:15:19.475Z,14.50
2018-10-05T07:17:47.578Z,14.70
2018-10-05T07:20:15.674Z,15.00
2018-10-05T07:22:43.701Z,15.00
2018-10-05T07:25:11.702Z,15.20
2018-10-05T07:27:39.761Z,15.30
2018-10-05T07:30:08.200Z,15.40
2018-10-05T07:32:36.549Z,15.60
2018-10-05T07:35:04.665Z,15.60
2018-10-05T07:37:32.715Z,15.80
2018-10-05T07:40:00.858Z,16.10
2018-10-05T07:42:28.954Z,16.20
2018-10-05T07:44:57.249Z,16.40
2018-10-05T07:47:25.345Z,16.40
2018-10-05T07:49:53.347Z,16.40
2018-10-05T07:52:21.436Z,16.40
2018-10-05T07:54:49.537Z,16.50
2018-10-05T07:57:17.649Z,16.60
2018-10-05T07:59:45.729Z,16.50
2018-10-05T08:02:14.038Z,16.40
2018-10-05T08:04:42.099Z,16.50
2018-10-05T08:07:10.126Z,16.60
2018-10-05T08:09:38.248Z,16.80
2018-10-05T08:12:06.323Z,17.10
2018-10-05T08:14:34.620Z,17.30
2018-10-05T08:17:02.613Z,17.30
2018-10-05T08:19:30.721Z,17.40
2018-10-05T08:21:58.745Z,17.40
2018-10-05T08:24:26.910Z,17.50
2018-10-05T08:26:54.979Z,17.50
2018-10-05T08:29:22.990Z,17.70
2018-10-05T08:31:51.105Z,17.70
2018-10-05T08:34:19.220Z,17.70
2018-10-05T08:36:47.394Z,17.80
2018-10-05T08:39:15.488Z,17.90
2018-10-05T08:41:43.586Z,18.00
2018-10-05T08:44:11.805Z,18.10
2018-10-05T08:46:39.883Z,18.00
2018-10-05T08:49:08.282Z,18.10
2018-10-05T08:51:36.546Z,18.20
2018-10-05T08:54:04.481Z,18.20
2018-10-05T08:56:32.510Z,18.20
2018-10-05T08:59:00.566Z,18.30
2018-10-05T09:01:28.672Z,18.40
2018-10-05T09:03:56.757Z,18.50
2018-10-05T09:06:24.966Z,18.60
2018-10-05T09:08:53.058Z,18.50
2018-10-05T09:11:21.226Z,18.60
2018-10-05T09:13:49.259Z,18.40
2018-10-05T09:16:17.253Z,18.70
2018-10-05T09:18:45.347Z,18.80
2018-10-05T09:21:13.394Z,19.00
2018-10-05T09:23:41.465Z,18.80
2018-10-05T09:26:09.530Z,18.80
2018-10-05T09:28:37.934Z,18.90
2018-10-05T09:31:05.933Z,18.80
2018-10-05T09:33:34.030Z,18.70
2018-10-05T09:36:02.421Z,18.90
2018-10-05T09:38:30.424Z,19.00
2018-10-05T09:40:58.417Z,19.10
2018-10-05T09:43:26.454Z,19.20
2018-10-05T09:45:54.494Z,19.30
2018-10-05T09:48:22.505Z,19.30
2018-10-05T09:50:50.603Z,19.50
2018-10-05T09:53:18.698Z,19.60
2018-10-05T09:55:46.797Z,19.70
2018-10-05T09:58:14.901Z,19.60
2018-10-05T10:00:48.313Z,19.50
2018-10-05T10:03:21.847Z,19.60
2018-10-05T10:05:49.842Z,19.70
2018-10-05T10:08:17.881Z,19.70
2018-10-05T10:10:45.926Z,19.70
2018-10-05T10:13:14.009Z,19.70
2018-10-05T10:15:42.054Z,19.60
2018-10-05T10:18:10.054Z,19.70
2018-10-05T10:20:38.045Z,19.90
2018-10-05T10:23:06.087Z,20.10
2018-10-05T10:25:34.989Z,20.30
2018-10-05T10:28:03.145Z,20.30
2018-10-05T10:30:31.213Z,20.00
2018-10-05T10:32:59.311Z,20.10
2018-10-05T10:35:27.463Z,20.20
2018-10-05T10:37:55.449Z,20.30
2018-10-05T10:40:23.443Z,20.40
2018-10-05T10:42:51.594Z,20.50
2018-10-05T10:45:19.696Z,20.50
2018-10-05T10:47:47.846Z,20.50
2018-10-05T10:50:15.894Z,20.60
2018-10-05T10:52:43.942Z,20.60
2018-10-05T10:55:12.123Z,20.80
2018-10-05T10:57:40.179Z,20.80
2018-10-05T11:00:08.559Z,20.80
2018-10-05T11:02:36.711Z,20.90
2018-10-05T11:05:04.790Z,20.70
2018-10-05T11:07:32.805Z,20.70
2018-10-05T11:10:00.794Z,20.70
2018-10-05T11:12:28.785Z,20.80
2018-10-05T11:14:56.821Z,20.50
2018-10-05T11:17:24.811Z,20.60
2018-10-05T11:19:52.809Z,20.60
2018-10-05T11:22:21.145Z,20.60
2018-10-05T11:24:49.242Z,20.50
2018-10-05T11:27:17.241Z,20.30
2018-10-05T11:29:45.534Z,20.40
2018-10-05T11:32:13.514Z,20.60
2018-10-05T11:34:41.526Z,20.40
2018-10-05T11:37:09.553Z,20.50
2018-10-05T11:39:37.573Z,20.60
2018-10-05T11:42:05.718Z,20.60
2018-10-05T11:44:33.777Z,20.70
2018-10-05T11:47:01.911Z,20.80
2018-10-05T11:49:30.011Z,20.80
2018-10-05T11:51:58.197Z,20.70
2018-10-05T11:54:26.386Z,20.60
2018-10-05T11:56:54.399Z,20.60
2018-10-05T11:59:22.502Z,20.50
2018-10-05T12:01:50.534Z,20.60
2018-10-05T12:04:18.535Z,20.50
2018-10-05T12:06:46.889Z,20.50
2018-10-05T12:09:14.886Z,20.60
2018-10-05T12:11:43.433Z,20.60
2018-10-05T12:14:11.506Z,20.70
2018-10-05T12:16:39.550Z,20.70
2018-10-05T12:19:07.677Z,20.60
2018-10-05T12:21:35.729Z,20.50
2018-10-05T12:24:03.762Z,20.60
2018-10-05T12:26:31.822Z,20.80
2018-10-05T12:28:59.866Z,20.70
2018-10-05T12:31:27.967Z,20.70
2018-10-05T12:33:55.957Z,20.70
2018-10-05T12:36:23.958Z,20.70
2018-10-05T12:38:52.050Z,20.80
2018-10-05T12:41:20.130Z,20.90
2018-10-05T12:43:48.137Z,20.60
2018-10-05T12:46:16.174Z,20.60
2018-10-05T12:48:44.234Z,20.60
2018-10-05T12:51:12.226Z,20.70
2018-10-05T12:53:40.321Z,20.70
2018-10-05T12:56:08.409Z,20.80
2018-10-05T12:58:36.618Z,20.70
2018-10-05T13:01:04.709Z,20.50
2018-10-05T13:03:32.756Z,20.50
2018-10-05T13:06:00.822Z,20.40
2018-10-05T13:08:29.211Z,20.40
2018-10-05T13:10:57.317Z,20.40
2018-10-05T13:13:25.460Z,20.30
2018-10-05T13:15:53.745Z,20.30
2018-10-05T13:18:21.806Z,20.20
2018-10-05T13:20:49.907Z,20.10
2018-10-05T13:23:18.308Z,20.10
2018-10-05T13:25:46.398Z,20.00
2018-10-05T13:28:14.801Z,20.00
2018-10-05T13:30:43.158Z,20.00
2018-10-05T13:33:11.165Z,19.90
2018-10-05T13:35:39.205Z,19.90
2018-10-05T13:38:07.290Z,19.80
2018-10-05T13:40:35.385Z,19.80
2018-10-05T13:43:03.661Z,19.80
2018-10-05T13:45:31.790Z,19.80
2018-10-05T13:48:00.043Z,19.90
2018-10-05T13:50:28.081Z,19.90
2018-10-05T13:52:56.382Z,19.80
2018-10-05T13:55:24.445Z,19.60
2018-10-05T13:57:52.486Z,19.60
2018-10-05T14:00:20.673Z,19.50
2018-10-05T14:02:49.839Z,19.60
2018-10-05T14:05:18.205Z,19.60
2018-10-05T14:07:46.198Z,19.60
2018-10-05T14:10:14.299Z,19.60
2018-10-05T14:12:42.326Z,19.60
2018-10-05T14:15:10.592Z,19.50
2018-10-05T14:17:38.686Z,19.50
2018-10-05T14:20:06.683Z,19.60
2018-10-05T14:22:34.738Z,19.60
2018-10-05T14:25:02.850Z,19.50
2018-10-05T14:27:30.996Z,19.50
2018-10-05T14:29:58.982Z,19.50
2018-10-05T14:32:27.033Z,19.50
2018-10-05T14:34:55.038Z,19.40
2018-10-05T14:37:23.138Z,19.40
2018-10-05T14:39:51.266Z,19.40
2018-10-05T14:42:19.352Z,19.30
2018-10-05T14:44:47.442Z,19.30
2018-10-05T14:47:15.718Z,19.30
2018-10-05T14:49:43.691Z,19.30
2018-10-05T14:52:11.729Z,19.30
2018-10-05T14:54:39.831Z,19.30
2018-10-05T14:57:07.918Z,19.30
2018-10-05T14:59:35.978Z,19.40
2018-10-05T15:02:04.333Z,19.40
2018-10-05T15:04:32.328Z,19.40
2018-10-05T15:07:00.421Z,19.40
2018-10-05T15:09:28.637Z,19.30
2018-10-05T15:11:56.637Z,19.20
2018-10-05T15:14:24.674Z,19.10
2018-10-05T15:16:52.673Z,19.20
2018-10-05T15:19:20.769Z,19.10
2018-10-05T15:21:48.882Z,19.00
2018-10-05T15:24:16.878Z,19.00
2018-10-05T15:26:44.873Z,19.00
2018-10-05T15:29:12.995Z,18.90
2018-10-05T15:31:41.078Z,18.80
2018-10-05T15:34:09.086Z,18.80
2018-10-05T15:36:37.129Z,18.70
2018-10-05T15:39:06.851Z,18.70
2018-10-05T15:41:34.890Z,18.60
2018-10-05T15:44:03.016Z,18.60
2018-10-05T15:47:06.520Z,18.60
2018-10-05T15:49:36.270Z,18.60
2018-10-05T15:52:04.470Z,18.50
2018-10-05T15:54:32.876Z,18.40
2018-10-05T15:57:00.950Z,18.40
2018-10-05T15:59:29.569Z,18.30
2018-10-05T16:01:57.810Z,18.20
2018-10-05T16:04:26.289Z,18.10
2018-10-05T16:06:54.319Z,18.10
2018-10-05T16:09:22.343Z,18.00
2018-10-05T16:11:50.579Z,17.90
2018-10-05T16:14:18.701Z,17.90
2018-10-05T16:16:46.774Z,17.70
2018-10-05T16:19:15.173Z,17.60
2018-10-05T16:21:43.202Z,17.50
2018-10-05T16:24:45.535Z,17.40
2018-10-05T16:27:14.191Z,17.30
2018-10-05T16:29:42.385Z,17.20
2018-10-05T16:32:11.104Z,17.10
2018-10-05T16:34:39.246Z,17.00
2018-10-05T16:37:07.281Z,16.90
2018-10-05T16:39:35.588Z,16.60
2018-10-05T16:42:03.889Z,16.30
2018-10-05T16:44:31.995Z,16.10
2018-10-05T16:47:00.397Z,15.90
2018-10-05T16:49:28.494Z,15.70
2018-10-05T16:51:56.490Z,15.60
2018-10-05T16:54:24.579Z,15.40
2018-10-05T16:56:52.683Z,15.30
2018-10-05T16:59:20.770Z,15.10
2018-10-05T17:01:48.802Z,14.90
2018-10-05T17:04:16.801Z,14.70
2018-10-05T17:06:44.798Z,14.60
2018-10-05T17:09:13.408Z,14.40
2018-10-05T17:11:42.795Z,14.20
2018-10-05T17:14:10.817Z,14.10
2018-10-05T17:16:38.894Z,14.00
2018-10-05T17:19:07.190Z,13.90
2018-10-05T17:21:35.790Z,13.70
2018-10-05T17:24:03.793Z,13.60
2018-10-05T17:26:31.886Z,13.40
2018-10-05T17:28:59.982Z,13.40
2018-10-05T17:31:28.163Z,13.40
2018-10-05T17:33:56.311Z,13.30
2018-10-05T17:36:24.588Z,13.20
2018-10-05T17:38:52.900Z,13.20
2018-10-05T17:41:21.165Z,13.00
2018-10-05T17:43:49.310Z,12.90
2018-10-05T17:46:17.726Z,12.80
2018-10-05T17:48:45.958Z,12.70
2018-10-05T17:51:14.125Z,12.60
2018-10-05T17:53:42.175Z,12.60
2018-10-05T17:56:10.264Z,12.50
2018-10-05T17:58:38.283Z,12.50
2018-10-05T18:01:06.416Z,12.50
2018-10-05T18:03:34.409Z,12.40
2018-10-05T18:06:02.491Z,12.30
2018-10-05T18:08:30.688Z,12.30
2018-10-05T18:10:58.839Z,12.20
2018-10-05T18:13:27.017Z,12.20
2018-10-05T18:15:55.145Z,12.10
2018-10-05T18:18:23.449Z,12.10
2018-10-05T18:20:51.571Z,12.00
2018-10-05T18:23:19.656Z,11.90
2018-10-05T18:25:48.085Z,11.90
2018-10-05T18:28:16.262Z,11.90
2018-10-05T18:30:44.333Z,11.90
2018-10-05T18:33:12.366Z,11.80
2018-10-05T18:35:40.548Z,11.80
2018-10-05T18:38:08.641Z,11.70
2018-10-05T18:40:36.689Z,11.70
2018-10-05T18:43:04.855Z,11.70
2018-10-05T18:45:33.142Z,11.80
2018-10-05T18:48:01.343Z,11.90
2018-10-05T18:50:29.443Z,11.90
2018-10-05T18:52:57.441Z,11.80
2018-10-05T18:55:25.501Z,11.80
2018-10-05T18:57:53.587Z,11.80
2018-10-05T19:00:21.818Z,11.70
2018-10-05T19:02:49.764Z,11.80
2018-10-05T19:05:18.122Z,11.80
2018-10-05T19:07:46.217Z,11.80
2018-10-05T19:10:14.215Z,11.80
2018-10-05T19:12:42.246Z,11.80
2018-10-05T19:15:10.755Z,11.70
2018-10-05T19:17:38.915Z,11.80
2018-10-05T19:20:07.005Z,11.90
2018-10-05T19:22:35.018Z,11.90
2018-10-05T19:25:03.053Z,12.00
2018-10-05T19:27:31.216Z,12.10
2018-10-05T19:29:59.299Z,12.30
2018-10-05T19:32:27.346Z,12.40
2018-10-05T19:34:55.362Z,12.50
2018-10-05T19:37:23.417Z,12.60
2018-10-05T19:39:51.460Z,12.80
2018-10-05T19:42:19.582Z,12.80
2018-10-05T19:44:47.637Z,12.90
2018-10-05T19:47:15.719Z,13.00
2018-10-05T19:49:43.765Z,13.00
2018-10-05T19:52:11.813Z,13.10
2018-10-05T19:54:39.925Z,13.20
2018-10-05T19:57:07.950Z,13.20
2018-10-05T19:59:36.002Z,13.20
2018-10-05T20:02:04.081Z,13.20
2018-10-05T20:04:32.114Z,13.20
2018-10-05T20:07:00.254Z,13.20
2018-10-05T20:09:28.542Z,13.20
2018-10-05T20:11:56.544Z,13.30
2018-10-05T20:14:24.636Z,13.30
2018-10-05T20:16:52.679Z,13.30
2018-10-05T20:19:20.721Z,13.30
2018-10-05T20:21:48.761Z,13.30
2018-10-05T20:24:16.800Z,13.30
2018-10-05T20:26:44.825Z,13.30
2018-10-05T20:29:12.880Z,13.20
2018-10-05T20:31:41.614Z,13.20
2018-10-05T20:34:09.605Z,13.10
2018-10-05T20:36:37.891Z,13.20
2018-10-05T20:39:07.425Z,13.10
2018-10-05T20:41:35.636Z,13.10
2018-10-05T20:44:03.659Z,13.00
2018-10-05T20:46:31.717Z,13.00
2018-10-05T20:48:59.834Z,13.00
2018-10-05T20:51:27.941Z,13.00
2018-10-05T20:53:56.041Z,13.00
2018-10-05T20:56:24.149Z,12.90
2018-10-05T20:58:52.525Z,12.90
2018-10-05T21:01:20.622Z,12.80
2018-10-05T21:03:48.630Z,12.70
2018-10-05T21:06:16.681Z,12.70
2018-10-05T21:08:44.705Z,12.50
2018-10-05T21:11:12.761Z,12.30
2018-10-05T21:13:41.992Z,12.20
2018-10-05T21:16:10.135Z,12.00
2018-10-05T21:18:38.213Z,11.90
2018-10-05T21:21:06.238Z,11.80
2018-10-05T21:23:34.303Z,11.90
2018-10-05T21:26:02.406Z,11.80
2018-10-05T21:28:30.411Z,11.70
2018-10-05T21:30:58.446Z,11.60
2018-10-05T21:33:26.552Z,11.60
2018-10-05T21:35:54.617Z,11.40
2018-10-05T21:38:22.613Z,11.30
2018-10-05T21:40:50.690Z,11.20
2018-10-05T21:43:18.815Z,11.10
2018-10-05T21:45:46.822Z,11.10
2018-10-05T21:48:14.901Z,10.90
2018-10-05T21:50:43.106Z,10.90
2018-10-05T21:53:11.103Z,10.90
2018-10-05T21:55:39.164Z,10.80
2018-10-05T21:58:07.271Z,10.70
2018-10-05T22:00:41.306Z,10.60
2018-10-05T22:03:10.048Z,10.60
2018-10-05T22:05:38.397Z,10.60
2018-10-05T22:08:06.697Z,10.50
2018-10-05T22:10:34.709Z,10.30
2018-10-05T22:13:02.778Z,10.20
2018-10-05T22:15:30.811Z,10.10
2018-10-05T22:17:58.876Z,10.10
2018-10-05T22:20:26.897Z,10.10
2018-10-05T22:22:54.970Z,10.10
2018-10-05T22:25:23.269Z,10.10
2018-10-05T22:27:51.393Z,10.10
2018-10-05T22:30:19.398Z,10.10
2018-10-05T22:32:47.814Z,10.10
2018-10-05T22:35:15.811Z,10.10
2018-10-05T22:37:43.846Z,10.00
2018-10-05T22:40:11.965Z,9.90
2018-10-05T22:42:40.001Z,10.00
2018-10-05T22:45:08.266Z,9.90
2018-10-05T22:47:36.357Z,9.80
2018-10-05T22:50:04.790Z,9.70
2018-10-05T22:52:33.093Z,9.90
2018-10-05T22:55:01.168Z,9.90
2018-10-05T22:57:29.175Z,9.90
2018-10-05T22:59:57.291Z,9.90
2018-10-05T23:02:25.322Z,10.00
2018-10-05T23:04:53.333Z,10.00
2018-10-05T23:07:21.401Z,10.00
2018-10-05T23:09:49.399Z,10.00
2018-10-05T23:12:17.439Z,10.10
2018-10-05T23:14:45.573Z,10.10
2018-10-05T23:17:13.640Z,10.00
2018-10-05T23:19:41.965Z,10.00
2018-10-05T23:22:09.950Z,9.90
2018-10-05T23:24:37.960Z,9.80
2018-10-05T23:27:06.427Z,9.90
2018-10-05T23:29:34.435Z,9.80
2018-10-05T23:32:02.526Z,9.70
2018-10-05T23:34:30.621Z,9.60
2018-10-05T23:36:58.879Z,9.50
2018-10-05T23:39:27.015Z,9.30
2018-10-05T23:41:55.054Z,9.20
2018-10-05T23:44:23.414Z,9.20
2018-10-05T23:46:51.650Z,9.40
2018-10-05T23:49:19.663Z,9.50
2018-10-05T23:51:48.080Z,9.60
2018-10-05T23:54:16.118Z,9.70
2018-10-05T23:56:44.305Z,9.60
2018-10-05T23:59:12.414Z,9.60
